createdAt,value
2023-03-15T14:50:50.531Z,11.32
2023-03-15T14:56:19.954Z,11.65
2023-03-15T15:01:59.427Z,12.17
2023-03-15T15:07:30.746Z,13.20
2023-03-15T15:13:06.039Z,13.30
2023-03-15T15:18:36.581Z,13.64
2023-03-15T15:24:14.954Z,13.05
2023-03-15T15:29:48.124Z,12.75
2023-03-15T15:35:21.408Z,12.26
2023-03-15T15:40:49.836Z,11.73
2023-03-15T15:46:20.550Z,11.48
2023-03-15T15:51:53.476Z,10.90
2023-03-15T15:57:29.934Z,9.80
2023-03-15T16:03:00.376Z,9.74
2023-03-15T16:08:28.493Z,9.77
2023-03-15T16:14:01.127Z,9.76
2023-03-15T16:19:29.681Z,9.48
2023-03-15T16:25:04.769Z,8.82
2023-03-15T16:30:35.439Z,8.80
2023-03-15T16:36:27.451Z,8.34
2023-03-15T16:42:12.929Z,7.96
2023-03-15T16:47:40.194Z,7.60
2023-03-15T16:53:23.500Z,7.32
2023-03-15T16:58:59.739Z,7.18
2023-03-15T17:04:37.646Z,7.12
2023-03-15T17:10:33.690Z,6.76
2023-03-15T17:16:02.919Z,6.48
2023-03-15T17:21:34.775Z,6.23
2023-03-15T17:27:03.388Z,6.03
2023-03-15T17:32:30.573Z,5.96
2023-03-15T17:37:58.564Z,5.84
2023-03-15T17:43:26.932Z,5.54
2023-03-15T17:48:55.570Z,5.66
2023-03-15T17:54:24.931Z,5.55
2023-03-15T17:59:53.843Z,5.59
2023-03-15T18:05:24.812Z,5.41
2023-03-15T18:10:54.473Z,5.25
2023-03-15T18:16:21.922Z,5.18
2023-03-15T18:21:49.644Z,4.96
2023-03-15T18:27:16.646Z,5.05
2023-03-15T18:32:43.999Z,4.97
2023-03-15T18:38:11.882Z,4.78
2023-03-15T18:43:44.515Z,4.61
2023-03-15T18:49:12.580Z,4.54
2023-03-15T18:54:39.590Z,4.40
2023-03-15T19:00:13.720Z,4.27
2023-03-15T19:05:42.071Z,4.18
2023-03-15T19:11:12.317Z,4.11
2023-03-15T19:16:39.848Z,4.05
2023-03-15T19:22:08.051Z,3.92
2023-03-15T19:27:35.939Z,3.83
2023-03-15T19:33:06.928Z,3.68
2023-03-15T19:38:35.043Z,3.61
2023-03-15T19:44:02.993Z,3.68
2023-03-15T19:49:33.666Z,3.72
2023-03-15T19:55:03.199Z,3.68
2023-03-15T20:00:32.653Z,3.56
2023-03-15T20:06:07.201Z,3.56
2023-03-15T20:11:38.953Z,3.59
2023-03-15T20:17:09.417Z,3.64
2023-03-15T20:22:41.736Z,3.49
2023-03-15T20:28:11.161Z,3.41
2023-03-15T20:33:40.559Z,3.42
2023-03-15T20:39:08.103Z,3.29
2023-03-15T20:44:36.378Z,3.28
2023-03-15T20:50:08.852Z,3.19
2023-03-15T20:55:36.575Z,3.13
2023-03-15T21:01:08.439Z,3.14
2023-03-15T21:06:35.916Z,3.12
2023-03-15T21:12:03.770Z,2.86
2023-03-15T21:17:31.289Z,2.63
2023-03-15T21:22:59.440Z,2.60
2023-03-15T21:28:29.322Z,2.55
2023-03-15T21:33:57.670Z,2.41
2023-03-15T21:39:25.310Z,2.43
2023-03-15T21:44:54.175Z,2.59
2023-03-15T21:50:23.372Z,2.60
2023-03-15T21:55:51.110Z,2.56
2023-03-15T22:01:18.344Z,2.61
2023-03-15T22:06:46.098Z,2.47
2023-03-15T22:12:15.336Z,2.34
2023-03-15T22:17:45.306Z,2.30
2023-03-15T22:23:13.198Z,2.26
2023-03-15T22:28:40.094Z,2.18
2023-03-15T22:34:07.102Z,2.20
2023-03-15T22:39:34.432Z,2.13
2023-03-15T22:45:02.249Z,2.05
2023-03-15T22:50:29.790Z,2.06
2023-03-15T22:55:58.664Z,2.03
2023-03-15T23:01:28.351Z,2.18
2023-03-15T23:06:57.361Z,2.00
2023-03-15T23:12:33.908Z,2.06
2023-03-15T23:18:03.777Z,2.11
2023-03-15T23:23:31.835Z,1.83
2023-03-15T23:28:59.202Z,1.70
2023-03-15T23:34:27.382Z,1.66
2023-03-15T23:39:54.645Z,1.51
2023-03-15T23:45:22.326Z,1.62
2023-03-15T23:50:54.655Z,1.67
2023-03-15T23:56:22.312Z,1.71
